sensor_id;sensor_type;location;lat;lon;timestamp;P1;durP1;ratioP1;P2;durP2;ratioP2
23082;SDS011;11709;52.420;10.538;2022-07-06T00:01:44;5.35;;;2.02;;
23082;SDS011;11709;52.420;10.538;2022-07-06T00:05:47;7.35;;;1.90;;
23082;SDS011;11709;52.420;10.538;2022-07-06T00:09:49;8.13;;;2.00;;
23082;SDS011;11709;52.420;10.538;2022-07-06T00:13:52;5.42;;;1.92;;
23082;SDS011;11709;52.420;10.538;2022-07-06T00:17:54;6.33;;;2.00;;
23082;SDS011;11709;52.420;10.538;2022-07-06T00:21:57;6.20;;;1.70;;
23082;SDS011;11709;52.420;10.538;2022-07-06T00:26:00;2.77;;;1.80;;
23082;SDS011;11709;52.420;10.538;2022-07-06T00:30:02;5.80;;;2.08;;
23082;SDS011;11709;52.420;10.538;2022-07-06T00:34:05;4.83;;;1.92;;
23082;SDS011;11709;52.420;10.538;2022-07-06T00:38:08;5.00;;;1.98;;
23082;SDS011;11709;52.420;10.538;2022-07-06T00:42:10;5.20;;;1.62;;
23082;SDS011;11709;52.420;10.538;2022-07-06T00:46:13;5.87;;;2.20;;
23082;SDS011;11709;52.420;10.538;2022-07-06T00:50:16;5.10;;;1.70;;
23082;SDS011;11709;52.420;10.538;2022-07-06T00:54:21;7.72;;;1.80;;
23082;SDS011;11709;52.420;10.538;2022-07-06T00:58:24;8.13;;;1.70;;
23082;SDS011;11709;52.420;10.538;2022-07-06T01:02:26;7.00;;;2.00;;
23082;SDS011;11709;52.420;10.538;2022-07-06T01:06:30;6.33;;;2.27;;
23082;SDS011;11709;52.420;10.538;2022-07-06T01:10:33;5.20;;;1.80;;
23082;SDS011;11709;52.420;10.538;2022-07-06T01:14:35;7.85;;;2.17;;
23082;SDS011;11709;52.420;10.538;2022-07-06T01:18:38;5.10;;;1.80;;
23082;SDS011;11709;52.420;10.538;2022-07-06T01:22:43;6.20;;;1.92;;
23082;SDS011;11709;52.420;10.538;2022-07-06T01:26:47;4.15;;;1.72;;
23082;SDS011;11709;52.420;10.538;2022-07-06T01:30:49;6.97;;;1.90;;
23082;SDS011;11709;52.420;10.538;2022-07-06T01:34:52;4.97;;;2.30;;
23082;SDS011;11709;52.420;10.538;2022-07-06T01:38:55;6.45;;;1.90;;
23082;SDS011;11709;52.420;10.538;2022-07-06T01:43:00;4.15;;;2.05;;
23082;SDS011;11709;52.420;10.538;2022-07-06T01:47:02;2.50;;;1.80;;
23082;SDS011;11709;52.420;10.538;2022-07-06T01:51:05;3.42;;;2.00;;
23082;SDS011;11709;52.420;10.538;2022-07-06T01:55:08;4.50;;;2.20;;
23082;SDS011;11709;52.420;10.538;2022-07-06T01:59:10;6.10;;;2.17;;
23082;SDS011;11709;52.420;10.538;2022-07-06T02:03:13;5.62;;;2.15;;
23082;SDS011;11709;52.420;10.538;2022-07-06T02:07:15;4.08;;;1.70;;
23082;SDS011;11709;52.420;10.538;2022-07-06T02:11:18;5.60;;;1.90;;
23082;SDS011;11709;52.420;10.538;2022-07-06T02:15:21;4.65;;;1.70;;
23082;SDS011;11709;52.420;10.538;2022-07-06T02:19:23;4.80;;;1.75;;
23082;SDS011;11709;52.420;10.538;2022-07-06T02:23:26;7.50;;;1.98;;
23082;SDS011;11709;52.420;10.538;2022-07-06T02:27:28;5.22;;;1.72;;
23082;SDS011;11709;52.420;10.538;2022-07-06T02:31:31;2.45;;;1.50;;
23082;SDS011;11709;52.420;10.538;2022-07-06T02:35:34;8.75;;;1.80;;
23082;SDS011;11709;52.420;10.538;2022-07-06T02:39:38;12.23;;;1.98;;
23082;SDS011;11709;52.420;10.538;2022-07-06T02:43:40;3.55;;;1.85;;
23082;SDS011;11709;52.420;10.538;2022-07-06T02:47:43;5.10;;;1.95;;
23082;SDS011;11709;52.420;10.538;2022-07-06T02:51:45;4.62;;;2.00;;
23082;SDS011;11709;52.420;10.538;2022-07-06T02:55:48;10.20;;;1.95;;
23082;SDS011;11709;52.420;10.538;2022-07-06T02:59:50;4.17;;;1.82;;
23082;SDS011;11709;52.420;10.538;2022-07-06T03:03:53;5.00;;;1.80;;
23082;SDS011;11709;52.420;10.538;2022-07-06T03:07:55;5.53;;;1.90;;
23082;SDS011;11709;52.420;10.538;2022-07-06T03:11:58;6.42;;;1.90;;
23082;SDS011;11709;52.420;10.538;2022-07-06T03:16:00;5.28;;;1.75;;
23082;SDS011;11709;52.420;10.538;2022-07-06T03:20:04;4.30;;;1.50;;
23082;SDS011;11709;52.420;10.538;2022-07-06T03:24:07;7.22;;;1.90;;
23082;SDS011;11709;52.420;10.538;2022-07-06T03:28:10;3.72;;;1.62;;
23082;SDS011;11709;52.420;10.538;2022-07-06T03:32:12;5.22;;;1.92;;
23082;SDS011;11709;52.420;10.538;2022-07-06T03:36:15;3.87;;;1.90;;
23082;SDS011;11709;52.420;10.538;2022-07-06T03:40:17;6.40;;;2.00;;
23082;SDS011;11709;52.420;10.538;2022-07-06T03:44:20;8.20;;;1.50;;
23082;SDS011;11709;52.420;10.538;2022-07-06T03:48:22;8.40;;;1.77;;
23082;SDS011;11709;52.420;10.538;2022-07-06T03:52:25;4.65;;;1.80;;
23082;SDS011;11709;52.420;10.538;2022-07-06T03:56:27;4.83;;;2.60;;
23082;SDS011;11709;52.420;10.538;2022-07-06T04:00:30;3.72;;;1.80;;
23082;SDS011;11709;52.420;10.538;2022-07-06T04:04:33;5.05;;;2.12;;
23082;SDS011;11709;52.420;10.538;2022-07-06T04:08:36;7.97;;;2.00;;
23082;SDS011;11709;52.420;10.538;2022-07-06T04:12:44;8.08;;;2.10;;
23082;SDS011;11709;52.420;10.538;2022-07-06T04:16:47;5.78;;;2.05;;
23082;SDS011;11709;52.420;10.538;2022-07-06T04:20:50;5.87;;;1.82;;
23082;SDS011;11709;52.420;10.538;2022-07-06T04:24:52;7.67;;;1.82;;
23082;SDS011;11709;52.420;10.538;2022-07-06T04:28:55;4.08;;;1.47;;
23082;SDS011;11709;52.420;10.538;2022-07-06T04:32:57;7.58;;;2.33;;
23082;SDS011;11709;52.420;10.538;2022-07-06T04:37:00;3.22;;;1.62;;
23082;SDS011;11709;52.420;10.538;2022-07-06T04:41:03;9.68;;;2.40;;
23082;SDS011;11709;52.420;10.538;2022-07-06T04:45:05;3.55;;;1.60;;
23082;SDS011;11709;52.420;10.538;2022-07-06T04:49:08;3.85;;;1.70;;
23082;SDS011;11709;52.420;10.538;2022-07-06T04:53:11;6.50;;;1.80;;
23082;SDS011;11709;52.420;10.538;2022-07-06T04:57:13;3.65;;;1.62;;
23082;SDS011;11709;52.420;10.538;2022-07-06T05:01:16;5.62;;;1.80;;
23082;SDS011;11709;52.420;10.538;2022-07-06T05:05:18;2.90;;;1.35;;
23082;SDS011;11709;52.420;10.538;2022-07-06T05:09:21;6.42;;;1.67;;
23082;SDS011;11709;52.420;10.538;2022-07-06T05:13:23;5.20;;;1.70;;
23082;SDS011;11709;52.420;10.538;2022-07-06T05:17:26;12.33;;;2.00;;
23082;SDS011;11709;52.420;10.538;2022-07-06T05:21:28;5.75;;;1.47;;
23082;SDS011;11709;52.420;10.538;2022-07-06T05:25:31;4.47;;;1.95;;
23082;SDS011;11709;52.420;10.538;2022-07-06T05:29:33;5.15;;;1.90;;
23082;SDS011;11709;52.420;10.538;2022-07-06T05:33:36;6.20;;;1.65;;
23082;SDS011;11709;52.420;10.538;2022-07-06T05:37:38;7.17;;;1.65;;
23082;SDS011;11709;52.420;10.538;2022-07-06T05:41:41;4.75;;;1.52;;
23082;SDS011;11709;52.420;10.538;2022-07-06T05:45:44;10.50;;;1.98;;
23082;SDS011;11709;52.420;10.538;2022-07-06T05:49:46;9.75;;;1.80;;
23082;SDS011;11709;52.420;10.538;2022-07-06T05:54:06;11.20;;;2.12;;
23082;SDS011;11709;52.420;10.538;2022-07-06T05:58:09;4.55;;;1.37;;
23082;SDS011;11709;52.420;10.538;2022-07-06T06:02:11;5.70;;;1.60;;
23082;SDS011;11709;52.420;10.538;2022-07-06T06:06:14;8.23;;;1.95;;
23082;SDS011;11709;52.420;10.538;2022-07-06T06:10:17;4.65;;;1.40;;
23082;SDS011;11709;52.420;10.538;2022-07-06T06:14:20;5.10;;;1.52;;
23082;SDS011;11709;52.420;10.538;2022-07-06T06:18:23;4.55;;;1.50;;
23082;SDS011;11709;52.420;10.538;2022-07-06T06:22:25;6.20;;;1.70;;
23082;SDS011;11709;52.420;10.538;2022-07-06T06:26:28;4.95;;;1.30;;
23082;SDS011;11709;52.420;10.538;2022-07-06T06:30:30;8.05;;;1.37;;
23082;SDS011;11709;52.420;10.538;2022-07-06T06:34:33;6.67;;;2.35;;
23082;SDS011;11709;52.420;10.538;2022-07-06T06:38:36;6.75;;;1.62;;
23082;SDS011;11709;52.420;10.538;2022-07-06T06:42:38;7.22;;;1.17;;
23082;SDS011;11709;52.420;10.538;2022-07-06T06:46:41;7.90;;;1.60;;
23082;SDS011;11709;52.420;10.538;2022-07-06T06:50:44;2.37;;;1.17;;
23082;SDS011;11709;52.420;10.538;2022-07-06T06:54:47;7.97;;;1.50;;
23082;SDS011;11709;52.420;10.538;2022-07-06T06:58:50;6.92;;;1.20;;
23082;SDS011;11709;52.420;10.538;2022-07-06T07:02:52;6.15;;;1.60;;
23082;SDS011;11709;52.420;10.538;2022-07-06T07:06:55;5.10;;;1.37;;
23082;SDS011;11709;52.420;10.538;2022-07-06T07:10:57;9.48;;;1.85;;
23082;SDS011;11709;52.420;10.538;2022-07-06T07:15:00;6.95;;;1.45;;
23082;SDS011;11709;52.420;10.538;2022-07-06T07:19:03;4.53;;;1.12;;
23082;SDS011;11709;52.420;10.538;2022-07-06T07:23:05;4.28;;;1.25;;
23082;SDS011;11709;52.420;10.538;2022-07-06T07:27:08;4.00;;;1.65;;
23082;SDS011;11709;52.420;10.538;2022-07-06T07:31:10;3.90;;;1.27;;
23082;SDS011;11709;52.420;10.538;2022-07-06T07:35:13;5.17;;;1.37;;
23082;SDS011;11709;52.420;10.538;2022-07-06T07:39:15;3.92;;;1.10;;
23082;SDS011;11709;52.420;10.538;2022-07-06T07:43:18;7.28;;;1.45;;
23082;SDS011;11709;52.420;10.538;2022-07-06T07:47:20;7.28;;;1.27;;
23082;SDS011;11709;52.420;10.538;2022-07-06T07:51:23;7.67;;;1.10;;
23082;SDS011;11709;52.420;10.538;2022-07-06T07:55:25;6.35;;;1.40;;
23082;SDS011;11709;52.420;10.538;2022-07-06T07:59:28;1.82;;;1.10;;
23082;SDS011;11709;52.420;10.538;2022-07-06T08:03:31;5.87;;;1.32;;
23082;SDS011;11709;52.420;10.538;2022-07-06T08:07:33;5.50;;;1.10;;
23082;SDS011;11709;52.420;10.538;2022-07-06T08:11:36;5.30;;;1.25;;
23082;SDS011;11709;52.420;10.538;2022-07-06T08:15:38;4.25;;;1.00;;
23082;SDS011;11709;52.420;10.538;2022-07-06T08:19:41;2.15;;;0.90;;
23082;SDS011;11709;52.420;10.538;2022-07-06T08:23:43;4.47;;;0.88;;
23082;SDS011;11709;52.420;10.538;2022-07-06T08:27:46;4.87;;;0.90;;
23082;SDS011;11709;52.420;10.538;2022-07-06T08:31:49;4.60;;;1.07;;
23082;SDS011;11709;52.420;10.538;2022-07-06T08:35:51;3.62;;;0.85;;
23082;SDS011;11709;52.420;10.538;2022-07-06T08:39:54;4.92;;;1.10;;
23082;SDS011;11709;52.420;10.538;2022-07-06T08:43:56;3.98;;;1.00;;
23082;SDS011;11709;52.420;10.538;2022-07-06T08:48:05;4.92;;;0.80;;
23082;SDS011;11709;52.420;10.538;2022-07-06T08:52:05;2.03;;;0.90;;
23082;SDS011;11709;52.420;10.538;2022-07-06T08:56:09;5.78;;;0.93;;
23082;SDS011;11709;52.420;10.538;2022-07-06T09:00:12;2.92;;;0.75;;
23082;SDS011;11709;52.420;10.538;2022-07-06T09:04:16;4.35;;;0.72;;
23082;SDS011;11709;52.420;10.538;2022-07-06T09:08:20;5.28;;;1.20;;
23082;SDS011;11709;52.420;10.538;2022-07-06T09:12:25;2.22;;;0.70;;
23082;SDS011;11709;52.420;10.538;2022-07-06T09:16:28;4.67;;;0.80;;
23082;SDS011;11709;52.420;10.538;2022-07-06T09:20:33;2.55;;;0.85;;
23082;SDS011;11709;52.420;10.538;2022-07-06T09:24:37;3.27;;;0.60;;
23082;SDS011;11709;52.420;10.538;2022-07-06T09:28:44;2.98;;;0.65;;
23082;SDS011;11709;52.420;10.538;2022-07-06T09:32:54;4.37;;;0.98;;
23082;SDS011;11709;52.420;10.538;2022-07-06T09:36:53;3.37;;;0.60;;
23082;SDS011;11709;52.420;10.538;2022-07-06T09:40:56;1.02;;;0.50;;
23082;SDS011;11709;52.420;10.538;2022-07-06T09:44:59;4.83;;;0.90;;
23082;SDS011;11709;52.420;10.538;2022-07-06T09:49:06;3.40;;;0.88;;
23082;SDS011;11709;52.420;10.538;2022-07-06T09:53:09;2.27;;;0.70;;
23082;SDS011;11709;52.420;10.538;2022-07-06T09:57:13;4.70;;;0.60;;
23082;SDS011;11709;52.420;10.538;2022-07-06T10:01:38;2.72;;;0.68;;
23082;SDS011;11709;52.420;10.538;2022-07-06T10:05:30;1.75;;;0.65;;
23082;SDS011;11709;52.420;10.538;2022-07-06T10:09:34;3.00;;;0.75;;
23082;SDS011;11709;52.420;10.538;2022-07-06T10:13:37;2.95;;;1.02;;
23082;SDS011;11709;52.420;10.538;2022-07-06T10:17:41;1.35;;;0.60;;
23082;SDS011;11709;52.420;10.538;2022-07-06T10:21:45;7.55;;;0.75;;
23082;SDS011;11709;52.420;10.538;2022-07-06T10:25:48;2.92;;;0.70;;
23082;SDS011;11709;52.420;10.538;2022-07-06T10:29:52;3.40;;;0.78;;
23082;SDS011;11709;52.420;10.538;2022-07-06T10:33:55;3.40;;;0.95;;
23082;SDS011;11709;52.420;10.538;2022-07-06T10:38:05;3.65;;;0.85;;
23082;SDS011;11709;52.420;10.538;2022-07-06T10:42:17;4.75;;;1.00;;
23082;SDS011;11709;52.420;10.538;2022-07-06T10:46:15;2.52;;;0.60;;
23082;SDS011;11709;52.420;10.538;2022-07-06T10:50:20;5.58;;;1.20;;
23082;SDS011;11709;52.420;10.538;2022-07-06T10:54:22;1.62;;;0.70;;
23082;SDS011;11709;52.420;10.538;2022-07-06T10:58:38;2.80;;;0.90;;
23082;SDS011;11709;52.420;10.538;2022-07-06T11:02:43;5.78;;;0.72;;
23082;SDS011;11709;52.420;10.538;2022-07-06T11:06:45;7.25;;;0.80;;
23082;SDS011;11709;52.420;10.538;2022-07-06T11:10:48;1.75;;;0.60;;
23082;SDS011;11709;52.420;10.538;2022-07-06T11:14:51;3.12;;;0.95;;
23082;SDS011;11709;52.420;10.538;2022-07-06T11:19:02;2.40;;;1.00;;
23082;SDS011;11709;52.420;10.538;2022-07-06T11:23:06;2.40;;;0.70;;
23082;SDS011;11709;52.420;10.538;2022-07-06T11:27:09;1.72;;;0.78;;
23082;SDS011;11709;52.420;10.538;2022-07-06T11:31:12;3.42;;;0.95;;
23082;SDS011;11709;52.420;10.538;2022-07-06T11:35:21;2.58;;;0.78;;
23082;SDS011;11709;52.420;10.538;2022-07-06T11:39:27;3.95;;;0.85;;
23082;SDS011;11709;52.420;10.538;2022-07-06T11:43:31;2.30;;;0.72;;
23082;SDS011;11709;52.420;10.538;2022-07-06T11:47:33;5.60;;;0.98;;
23082;SDS011;11709;52.420;10.538;2022-07-06T11:51:37;4.55;;;0.80;;
23082;SDS011;11709;52.420;10.538;2022-07-06T11:55:40;4.97;;;1.00;;
23082;SDS011;11709;52.420;10.538;2022-07-06T11:59:43;3.60;;;0.93;;
23082;SDS011;11709;52.420;10.538;2022-07-06T12:03:47;5.00;;;0.90;;
23082;SDS011;11709;52.420;10.538;2022-07-06T12:08:02;2.25;;;0.80;;
23082;SDS011;11709;52.420;10.538;2022-07-06T12:11:56;3.35;;;0.80;;
23082;SDS011;11709;52.420;10.538;2022-07-06T12:16:08;2.85;;;0.65;;
23082;SDS011;11709;52.420;10.538;2022-07-06T12:20:04;3.70;;;0.80;;
23082;SDS011;11709;52.420;10.538;2022-07-06T12:24:07;2.37;;;1.00;;
23082;SDS011;11709;52.420;10.538;2022-07-06T12:28:21;2.15;;;0.72;;
23082;SDS011;11709;52.420;10.538;2022-07-06T12:32:26;2.25;;;0.88;;
23082;SDS011;11709;52.420;10.538;2022-07-06T12:36:28;3.02;;;0.57;;
23082;SDS011;11709;52.420;10.538;2022-07-06T12:40:31;3.95;;;1.25;;
23082;SDS011;11709;52.420;10.538;2022-07-06T12:44:35;2.37;;;0.90;;
23082;SDS011;11709;52.420;10.538;2022-07-06T12:48:51;3.47;;;0.82;;
23082;SDS011;11709;52.420;10.538;2022-07-06T12:52:55;2.58;;;0.75;;
23082;SDS011;11709;52.420;10.538;2022-07-06T12:57:05;3.72;;;0.62;;
23082;SDS011;11709;52.420;10.538;2022-07-06T13:01:15;4.55;;;0.90;;
23082;SDS011;11709;52.420;10.538;2022-07-06T13:05:18;3.80;;;0.40;;
23082;SDS011;11709;52.420;10.538;2022-07-06T13:09:23;0.95;;;0.70;;
23082;SDS011;11709;52.420;10.538;2022-07-06T13:13:26;3.67;;;1.02;;
23082;SDS011;11709;52.420;10.538;2022-07-06T13:17:29;3.10;;;0.50;;
23082;SDS011;11709;52.420;10.538;2022-07-06T13:21:31;1.72;;;0.40;;
23082;SDS011;11709;52.420;10.538;2022-07-06T13:25:34;2.10;;;0.70;;
23082;SDS011;11709;52.420;10.538;2022-07-06T13:29:36;4.17;;;0.60;;
23082;SDS011;11709;52.420;10.538;2022-07-06T13:33:39;1.77;;;0.60;;
23082;SDS011;11709;52.420;10.538;2022-07-06T13:37:42;1.27;;;0.53;;
23082;SDS011;11709;52.420;10.538;2022-07-06T13:41:46;5.05;;;0.80;;
23082;SDS011;11709;52.420;10.538;2022-07-06T13:45:49;6.22;;;0.80;;
23082;SDS011;11709;52.420;10.538;2022-07-06T13:49:52;1.40;;;0.70;;
23082;SDS011;11709;52.420;10.538;2022-07-06T13:53:54;4.78;;;1.05;;
23082;SDS011;11709;52.420;10.538;2022-07-06T13:57:57;3.60;;;0.80;;
23082;SDS011;11709;52.420;10.538;2022-07-06T14:02:00;5.25;;;1.52;;
23082;SDS011;11709;52.420;10.538;2022-07-06T14:06:03;3.17;;;0.88;;
23082;SDS011;11709;52.420;10.538;2022-07-06T14:10:10;4.97;;;1.12;;
23082;SDS011;11709;52.420;10.538;2022-07-06T14:14:12;2.98;;;0.50;;
23082;SDS011;11709;52.420;10.538;2022-07-06T14:18:15;1.70;;;0.50;;
23082;SDS011;11709;52.420;10.538;2022-07-06T14:22:20;2.67;;;0.70;;
23082;SDS011;11709;52.420;10.538;2022-07-06T14:26:23;3.60;;;0.68;;
23082;SDS011;11709;52.420;10.538;2022-07-06T14:30:25;3.50;;;0.82;;
23082;SDS011;11709;52.420;10.538;2022-07-06T14:34:28;1.42;;;0.68;;
23082;SDS011;11709;52.420;10.538;2022-07-06T14:38:31;2.75;;;0.70;;
23082;SDS011;11709;52.420;10.538;2022-07-06T14:42:34;7.22;;;0.88;;
23082;SDS011;11709;52.420;10.538;2022-07-06T14:46:37;1.65;;;0.60;;
23082;SDS011;11709;52.420;10.538;2022-07-06T14:50:40;1.52;;;0.50;;
23082;SDS011;11709;52.420;10.538;2022-07-06T14:54:42;5.35;;;1.32;;
23082;SDS011;11709;52.420;10.538;2022-07-06T14:58:45;1.35;;;0.47;;
23082;SDS011;11709;52.420;10.538;2022-07-06T15:02:47;2.98;;;0.80;;
23082;SDS011;11709;52.420;10.538;2022-07-06T15:06:50;2.22;;;0.50;;
23082;SDS011;11709;52.420;10.538;2022-07-06T15:10:52;2.20;;;0.65;;
23082;SDS011;11709;52.420;10.538;2022-07-06T15:14:55;1.67;;;0.40;;
23082;SDS011;11709;52.420;10.538;2022-07-06T15:18:57;2.77;;;0.50;;
23082;SDS011;11709;52.420;10.538;2022-07-06T15:23:00;3.20;;;1.10;;
23082;SDS011;11709;52.420;10.538;2022-07-06T15:27:03;3.80;;;0.60;;
23082;SDS011;11709;52.420;10.538;2022-07-06T15:31:06;3.75;;;0.70;;
23082;SDS011;11709;52.420;10.538;2022-07-06T15:35:08;3.02;;;0.62;;
23082;SDS011;11709;52.420;10.538;2022-07-06T15:39:11;7.35;;;0.75;;
23082;SDS011;11709;52.420;10.538;2022-07-06T15:43:13;4.60;;;0.70;;
23082;SDS011;11709;52.420;10.538;2022-07-06T15:47:16;1.20;;;0.50;;
23082;SDS011;11709;52.420;10.538;2022-07-06T15:51:19;2.52;;;0.70;;
23082;SDS011;11709;52.420;10.538;2022-07-06T15:55:22;3.10;;;0.68;;
23082;SDS011;11709;52.420;10.538;2022-07-06T15:59:24;1.35;;;0.50;;
23082;SDS011;11709;52.420;10.538;2022-07-06T16:03:27;2.45;;;0.72;;
23082;SDS011;11709;52.420;10.538;2022-07-06T16:07:29;5.55;;;0.93;;
23082;SDS011;11709;52.420;10.538;2022-07-06T16:11:32;3.33;;;0.62;;
23082;SDS011;11709;52.420;10.538;2022-07-06T16:15:34;1.60;;;0.80;;
23082;SDS011;11709;52.420;10.538;2022-07-06T16:19:37;2.42;;;0.50;;
23082;SDS011;11709;52.420;10.538;2022-07-06T16:23:39;4.60;;;0.60;;
23082;SDS011;11709;52.420;10.538;2022-07-06T16:27:42;3.12;;;0.50;;
23082;SDS011;11709;52.420;10.538;2022-07-06T16:31:45;4.33;;;0.75;;
23082;SDS011;11709;52.420;10.538;2022-07-06T16:35:47;3.95;;;0.50;;
23082;SDS011;11709;52.420;10.538;2022-07-06T16:39:50;1.55;;;0.53;;
23082;SDS011;11709;52.420;10.538;2022-07-06T16:43:52;4.03;;;0.60;;
23082;SDS011;11709;52.420;10.538;2022-07-06T16:47:55;3.72;;;0.70;;
23082;SDS011;11709;52.420;10.538;2022-07-06T16:51:57;2.87;;;0.47;;
23082;SDS011;11709;52.420;10.538;2022-07-06T16:56:00;2.12;;;0.47;;
23082;SDS011;11709;52.420;10.538;2022-07-06T17:00:04;2.30;;;0.57;;
23082;SDS011;11709;52.420;10.538;2022-07-06T17:04:07;3.02;;;0.40;;
23082;SDS011;11709;52.420;10.538;2022-07-06T17:08:09;1.98;;;0.68;;
23082;SDS011;11709;52.420;10.538;2022-07-06T17:12:12;1.32;;;0.45;;
23082;SDS011;11709;52.420;10.538;2022-07-06T17:16:14;2.37;;;0.70;;
23082;SDS011;11709;52.420;10.538;2022-07-06T17:20:17;4.95;;;1.07;;
23082;SDS011;11709;52.420;10.538;2022-07-06T17:24:20;3.80;;;0.60;;
23082;SDS011;11709;52.420;10.538;2022-07-06T17:28:22;2.67;;;0.60;;
23082;SDS011;11709;52.420;10.538;2022-07-06T17:32:26;2.00;;;0.93;;
23082;SDS011;11709;52.420;10.538;2022-07-06T17:36:28;0.72;;;0.60;;
23082;SDS011;11709;52.420;10.538;2022-07-06T17:40:31;2.42;;;0.80;;
23082;SDS011;11709;52.420;10.538;2022-07-06T17:44:33;3.85;;;0.70;;
23082;SDS011;11709;52.420;10.538;2022-07-06T17:48:36;5.58;;;0.95;;
23082;SDS011;11709;52.420;10.538;2022-07-06T17:52:39;1.72;;;0.60;;
23082;SDS011;11709;52.420;10.538;2022-07-06T17:56:41;2.77;;;0.80;;
23082;SDS011;11709;52.420;10.538;2022-07-06T18:00:44;0.85;;;0.50;;
23082;SDS011;11709;52.420;10.538;2022-07-06T18:04:46;3.20;;;0.70;;
23082;SDS011;11709;52.420;10.538;2022-07-06T18:08:49;1.60;;;0.60;;
23082;SDS011;11709;52.420;10.538;2022-07-06T18:12:51;3.10;;;0.65;;
23082;SDS011;11709;52.420;10.538;2022-07-06T18:16:55;3.42;;;0.65;;
23082;SDS011;11709;52.420;10.538;2022-07-06T18:20:58;2.75;;;0.60;;
23082;SDS011;11709;52.420;10.538;2022-07-06T18:25:01;2.27;;;0.60;;
23082;SDS011;11709;52.420;10.538;2022-07-06T18:29:04;4.00;;;0.62;;
23082;SDS011;11709;52.420;10.538;2022-07-06T18:33:06;0.98;;;0.40;;
23082;SDS011;11709;52.420;10.538;2022-07-06T18:37:09;5.95;;;0.78;;
23082;SDS011;11709;52.420;10.538;2022-07-06T18:41:11;1.85;;;0.55;;
23082;SDS011;11709;52.420;10.538;2022-07-06T18:45:14;2.80;;;0.55;;
23082;SDS011;11709;52.420;10.538;2022-07-06T18:49:16;1.55;;;0.60;;
23082;SDS011;11709;52.420;10.538;2022-07-06T18:53:19;2.95;;;0.70;;
23082;SDS011;11709;52.420;10.538;2022-07-06T18:57:22;2.17;;;0.55;;
23082;SDS011;11709;52.420;10.538;2022-07-06T19:01:24;2.70;;;0.50;;
23082;SDS011;11709;52.420;10.538;2022-07-06T19:05:27;2.92;;;0.53;;
23082;SDS011;11709;52.420;10.538;2022-07-06T19:09:29;1.47;;;0.57;;
23082;SDS011;11709;52.420;10.538;2022-07-06T19:13:32;1.95;;;0.50;;
23082;SDS011;11709;52.420;10.538;2022-07-06T19:17:37;2.92;;;0.60;;
23082;SDS011;11709;52.420;10.538;2022-07-06T19:21:40;2.70;;;0.72;;
23082;SDS011;11709;52.420;10.538;2022-07-06T19:25:42;2.00;;;0.50;;
23082;SDS011;11709;52.420;10.538;2022-07-06T19:29:45;4.95;;;0.78;;
23082;SDS011;11709;52.420;10.538;2022-07-06T19:33:48;2.65;;;0.57;;
23082;SDS011;11709;52.420;10.538;2022-07-06T19:37:50;3.42;;;0.75;;
23082;SDS011;11709;52.420;10.538;2022-07-06T19:41:53;1.17;;;0.47;;
23082;SDS011;11709;52.420;10.538;2022-07-06T19:45:56;1.72;;;0.53;;
23082;SDS011;11709;52.420;10.538;2022-07-06T19:49:58;3.47;;;0.82;;
23082;SDS011;11709;52.420;10.538;2022-07-06T19:54:01;4.78;;;0.50;;
23082;SDS011;11709;52.420;10.538;2022-07-06T19:58:03;4.50;;;0.70;;
23082;SDS011;11709;52.420;10.538;2022-07-06T20:02:06;2.65;;;0.72;;
23082;SDS011;11709;52.420;10.538;2022-07-06T20:06:09;2.77;;;0.50;;
23082;SDS011;11709;52.420;10.538;2022-07-06T20:10:12;4.83;;;0.50;;
23082;SDS011;11709;52.420;10.538;2022-07-06T20:14:14;4.10;;;0.70;;
23082;SDS011;11709;52.420;10.538;2022-07-06T20:18:17;4.08;;;0.62;;
23082;SDS011;11709;52.420;10.538;2022-07-06T20:22:19;3.40;;;0.68;;
23082;SDS011;11709;52.420;10.538;2022-07-06T20:26:22;2.90;;;0.53;;
23082;SDS011;11709;52.420;10.538;2022-07-06T20:30:25;3.98;;;0.80;;
23082;SDS011;11709;52.420;10.538;2022-07-06T20:34:27;4.90;;;0.82;;
23082;SDS011;11709;52.420;10.538;2022-07-06T20:38:30;4.15;;;0.60;;
23082;SDS011;11709;52.420;10.538;2022-07-06T20:42:32;1.57;;;0.40;;
23082;SDS011;11709;52.420;10.538;2022-07-06T20:46:35;10.03;;;1.42;;
23082;SDS011;11709;52.420;10.538;2022-07-06T20:50:37;5.87;;;0.88;;
23082;SDS011;11709;52.420;10.538;2022-07-06T20:54:40;4.40;;;0.60;;
23082;SDS011;11709;52.420;10.538;2022-07-06T20:58:42;4.22;;;0.60;;
23082;SDS011;11709;52.420;10.538;2022-07-06T21:02:45;1.62;;;0.53;;
23082;SDS011;11709;52.420;10.538;2022-07-06T21:06:47;3.40;;;0.60;;
23082;SDS011;11709;52.420;10.538;2022-07-06T21:10:50;1.57;;;0.60;;
23082;SDS011;11709;52.420;10.538;2022-07-06T21:14:53;2.17;;;0.60;;
23082;SDS011;11709;52.420;10.538;2022-07-06T21:18:55;2.37;;;0.65;;
23082;SDS011;11709;52.420;10.538;2022-07-06T21:22:58;2.47;;;0.95;;
23082;SDS011;11709;52.420;10.538;2022-07-06T21:27:00;3.15;;;0.75;;
23082;SDS011;11709;52.420;10.538;2022-07-06T21:31:03;5.50;;;0.70;;
23082;SDS011;11709;52.420;10.538;2022-07-06T21:35:06;2.62;;;0.75;;
23082;SDS011;11709;52.420;10.538;2022-07-06T21:39:09;4.12;;;0.70;;
23082;SDS011;11709;52.420;10.538;2022-07-06T21:43:11;2.62;;;0.50;;
23082;SDS011;11709;52.420;10.538;2022-07-06T21:47:14;3.05;;;0.70;;
23082;SDS011;11709;52.420;10.538;2022-07-06T21:51:16;4.25;;;0.93;;
23082;SDS011;11709;52.420;10.538;2022-07-06T21:55:19;1.72;;;0.88;;
23082;SDS011;11709;52.420;10.538;2022-07-06T21:59:21;5.85;;;0.85;;
23082;SDS011;11709;52.420;10.538;2022-07-06T22:03:24;1.02;;;0.60;;
23082;SDS011;11709;52.420;10.538;2022-07-06T22:07:27;2.72;;;1.05;;
23082;SDS011;11709;52.420;10.538;2022-07-06T22:11:30;2.83;;;0.90;;
23082;SDS011;11709;52.420;10.538;2022-07-06T22:15:32;2.98;;;0.70;;
23082;SDS011;11709;52.420;10.538;2022-07-06T22:19:35;2.85;;;0.80;;
23082;SDS011;11709;52.420;10.538;2022-07-06T22:23:37;2.67;;;0.82;;
23082;SDS011;11709;52.420;10.538;2022-07-06T22:27:40;3.60;;;0.90;;
23082;SDS011;11709;52.420;10.538;2022-07-06T22:31:43;1.87;;;0.88;;
23082;SDS011;11709;52.420;10.538;2022-07-06T22:35:46;3.52;;;0.75;;
23082;SDS011;11709;52.420;10.538;2022-07-06T22:39:48;2.45;;;0.80;;
23082;SDS011;11709;52.420;10.538;2022-07-06T22:43:52;1.47;;;0.90;;
23082;SDS011;11709;52.420;10.538;2022-07-06T22:47:55;6.28;;;0.98;;
23082;SDS011;11709;52.420;10.538;2022-07-06T22:51:58;4.95;;;1.20;;
23082;SDS011;11709;52.420;10.538;2022-07-06T22:56:00;1.60;;;1.00;;
23082;SDS011;11709;52.420;10.538;2022-07-06T23:00:05;6.85;;;1.30;;
23082;SDS011;11709;52.420;10.538;2022-07-06T23:04:08;2.08;;;1.05;;
23082;SDS011;11709;52.420;10.538;2022-07-06T23:08:11;3.02;;;1.50;;
23082;SDS011;11709;52.420;10.538;2022-07-06T23:12:13;4.05;;;1.30;;
23082;SDS011;11709;52.420;10.538;2022-07-06T23:16:16;5.85;;;1.62;;
23082;SDS011;11709;52.420;10.538;2022-07-06T23:20:18;5.90;;;1.37;;
23082;SDS011;11709;52.420;10.538;2022-07-06T23:24:21;5.30;;;1.30;;
23082;SDS011;11709;52.420;10.538;2022-07-06T23:28:24;3.55;;;1.20;;
23082;SDS011;11709;52.420;10.538;2022-07-06T23:32:27;4.22;;;1.40;;
23082;SDS011;11709;52.420;10.538;2022-07-06T23:36:29;2.20;;;1.22;;
23082;SDS011;11709;52.420;10.538;2022-07-06T23:40:32;3.77;;;1.50;;
23082;SDS011;11709;52.420;10.538;2022-07-06T23:44:34;5.28;;;1.60;;
23082;SDS011;11709;52.420;10.538;2022-07-06T23:48:37;3.85;;;1.75;;
23082;SDS011;11709;52.420;10.538;2022-07-06T23:52:39;3.80;;;1.42;;
23082;SDS011;11709;52.420;10.538;2022-07-06T23:56:42;6.40;;;1.90;;
